sensor_id;sensor_type;location;lat;lon;timestamp;temperature;humidity
17174;DHT22;8702;48.130;-1.696;2023-01-15T03:11:08;7.50;99.90
17174;DHT22;8702;48.130;-1.696;2023-01-15T03:13:43;7.50;99.90
17174;DHT22;8702;48.130;-1.696;2023-01-15T03:16:15;7.40;99.90
17174;DHT22;8702;48.130;-1.696;2023-01-15T03:41:37;7.10;99.90
17174;DHT22;8702;48.130;-1.696;2023-01-15T03:44:15;7.00;99.90
17174;DHT22;8702;48.130;-1.696;2023-01-15T03:46:56;7.00;99.90
17174;DHT22;8702;48.130;-1.696;2023-01-15T03:49:39;7.00;99.90
17174;DHT22;8702;48.130;-1.696;2023-01-15T03:52:15;7.00;99.90
17174;DHT22;8702;48.130;-1.696;2023-01-15T03:54:55;7.00;99.90
17174;DHT22;8702;48.130;-1.696;2023-01-15T04:47:12;6.70;99.90
17174;DHT22;8702;48.130;-1.696;2023-01-15T04:49:39;6.70;99.90
17174;DHT22;8702;48.130;-1.696;2023-01-15T04:52:06;6.70;99.90
17174;DHT22;8702;48.130;-1.696;2023-01-15T04:54:32;6.70;99.90
17174;DHT22;8702;48.130;-1.696;2023-01-15T04:57:01;6.70;99.90
17174;DHT22;8702;48.130;-1.696;2023-01-15T04:59:28;6.60;99.90
17174;DHT22;8702;48.130;-1.696;2023-01-15T05:01:55;6.60;99.90
17174;DHT22;8702;48.130;-1.696;2023-01-15T05:04:22;6.60;99.90
17174;DHT22;8702;48.130;-1.696;2023-01-15T05:06:49;6.50;99.90
17174;DHT22;8702;48.130;-1.696;2023-01-15T05:09:16;6.60;99.90
17174;DHT22;8702;48.130;-1.696;2023-01-15T05:11:43;6.60;99.90
17174;DHT22;8702;48.130;-1.696;2023-01-15T05:14:11;6.60;99.90
17174;DHT22;8702;48.130;-1.696;2023-01-15T05:16:38;6.50;99.90
17174;DHT22;8702;48.130;-1.696;2023-01-15T05:19:05;6.50;99.90
17174;DHT22;8702;48.130;-1.696;2023-01-15T05:21:34;6.50;99.90
17174;DHT22;8702;48.130;-1.696;2023-01-15T05:24:03;6.50;99.90
17174;DHT22;8702;48.130;-1.696;2023-01-15T05:26:32;6.50;99.90
17174;DHT22;8702;48.130;-1.696;2023-01-15T05:28:59;6.50;99.90
17174;DHT22;8702;48.130;-1.696;2023-01-15T05:31:28;6.50;99.90
17174;DHT22;8702;48.130;-1.696;2023-01-15T05:33:56;6.50;99.90
17174;DHT22;8702;48.130;-1.696;2023-01-15T05:36:24;6.50;99.90
17174;DHT22;8702;48.130;-1.696;2023-01-15T05:38:52;6.50;99.90
17174;DHT22;8702;48.130;-1.696;2023-01-15T05:41:20;6.50;99.90
17174;DHT22;8702;48.130;-1.696;2023-01-15T05:44:06;6.50;99.90
17174;DHT22;8702;48.130;-1.696;2023-01-15T05:46:36;6.40;99.90
17174;DHT22;8702;48.130;-1.696;2023-01-15T05:49:05;6.40;99.90
17174;DHT22;8702;48.130;-1.696;2023-01-15T05:51:33;6.40;99.90
17174;DHT22;8702;48.130;-1.696;2023-01-15T05:54:00;6.40;99.90
17174;DHT22;8702;48.130;-1.696;2023-01-15T05:56:27;6.40;99.90
17174;DHT22;8702;48.130;-1.696;2023-01-15T05:58:54;6.40;99.90
17174;DHT22;8702;48.130;-1.696;2023-01-15T06:01:22;6.30;99.90
17174;DHT22;8702;48.130;-1.696;2023-01-15T06:03:50;6.30;99.90
17174;DHT22;8702;48.130;-1.696;2023-01-15T06:06:18;6.30;99.90
17174;DHT22;8702;48.130;-1.696;2023-01-15T06:08:45;6.30;99.90
17174;DHT22;8702;48.130;-1.696;2023-01-15T06:11:12;6.30;99.90
17174;DHT22;8702;48.130;-1.696;2023-01-15T06:16:08;6.40;99.90
17174;DHT22;8702;48.130;-1.696;2023-01-15T06:30:56;6.40;99.90
17174;DHT22;8702;48.130;-1.696;2023-01-15T06:33:23;6.40;99.90
17174;DHT22;8702;48.130;-1.696;2023-01-15T06:35:50;6.30;99.90
17174;DHT22;8702;48.130;-1.696;2023-01-15T06:40:48;6.40;99.90
17174;DHT22;8702;48.130;-1.696;2023-01-15T06:43:15;6.30;99.90
17174;DHT22;8702;48.130;-1.696;2023-01-15T10:21:07;8.20;99.90
17174;DHT22;8702;48.130;-1.696;2023-01-15T10:23:45;8.20;99.90
17174;DHT22;8702;48.130;-1.696;2023-01-15T10:26:27;8.20;99.90
17174;DHT22;8702;48.130;-1.696;2023-01-15T10:29:00;8.10;99.90
17174;DHT22;8702;48.130;-1.696;2023-01-15T10:31:49;8.10;99.90
17174;DHT22;8702;48.130;-1.696;2023-01-15T10:37:23;8.10;99.90
17174;DHT22;8702;48.130;-1.696;2023-01-15T10:40:11;8.10;99.90
17174;DHT22;8702;48.130;-1.696;2023-01-15T10:42:43;8.10;99.90
17174;DHT22;8702;48.130;-1.696;2023-01-15T10:45:17;8.10;99.90
17174;DHT22;8702;48.130;-1.696;2023-01-15T10:47:50;8.20;99.90
17174;DHT22;8702;48.130;-1.696;2023-01-15T10:50:21;8.20;99.90
17174;DHT22;8702;48.130;-1.696;2023-01-15T10:52:51;8.30;99.90
17174;DHT22;8702;48.130;-1.696;2023-01-15T10:55:26;8.40;99.90
17174;DHT22;8702;48.130;-1.696;2023-01-15T10:58:00;8.40;99.90
17174;DHT22;8702;48.130;-1.696;2023-01-15T11:00:29;8.40;99.90
17174;DHT22;8702;48.130;-1.696;2023-01-15T11:05:30;8.50;99.90
17174;DHT22;8702;48.130;-1.696;2023-01-15T11:07:58;8.50;99.90
17174;DHT22;8702;48.130;-1.696;2023-01-15T11:10:25;8.50;99.90
17174;DHT22;8702;48.130;-1.696;2023-01-15T11:12:54;8.50;99.90
17174;DHT22;8702;48.130;-1.696;2023-01-15T11:15:40;8.60;99.90
17174;DHT22;8702;48.130;-1.696;2023-01-15T11:18:32;8.60;99.90
17174;DHT22;8702;48.130;-1.696;2023-01-15T11:21:18;8.60;99.90
17174;DHT22;8702;48.130;-1.696;2023-01-15T11:23:47;8.60;99.90
17174;DHT22;8702;48.130;-1.696;2023-01-15T11:26:18;8.60;99.90
17174;DHT22;8702;48.130;-1.696;2023-01-15T11:28:46;8.70;99.90
17174;DHT22;8702;48.130;-1.696;2023-01-15T11:31:14;8.70;99.90
17174;DHT22;8702;48.130;-1.696;2023-01-15T11:33:54;8.80;99.90
17174;DHT22;8702;48.130;-1.696;2023-01-15T11:36:24;8.80;99.90
17174;DHT22;8702;48.130;-1.696;2023-01-15T11:38:52;8.80;99.90
17174;DHT22;8702;48.130;-1.696;2023-01-15T11:41:21;8.80;99.90
17174;DHT22;8702;48.130;-1.696;2023-01-15T11:43:56;8.80;99.90
17174;DHT22;8702;48.130;-1.696;2023-01-15T11:46:41;8.80;99.90
17174;DHT22;8702;48.130;-1.696;2023-01-15T11:49:27;8.90;99.90
17174;DHT22;8702;48.130;-1.696;2023-01-15T11:52:19;9.00;99.90
17174;DHT22;8702;48.130;-1.696;2023-01-15T11:54:50;9.00;99.90
17174;DHT22;8702;48.130;-1.696;2023-01-15T11:57:26;9.10;99.90
17174;DHT22;8702;48.130;-1.696;2023-01-15T12:25:50;9.30;99.90
17174;DHT22;8702;48.130;-1.696;2023-01-15T12:28:22;9.20;99.90
17174;DHT22;8702;48.130;-1.696;2023-01-15T12:33:35;9.00;99.90
17174;DHT22;8702;48.130;-1.696;2023-01-15T12:36:11;9.00;99.90
17174;DHT22;8702;48.130;-1.696;2023-01-15T12:38:47;9.00;99.90
17174;DHT22;8702;48.130;-1.696;2023-01-15T12:41:18;9.00;99.90
17174;DHT22;8702;48.130;-1.696;2023-01-15T12:43:50;9.00;99.90
17174;DHT22;8702;48.130;-1.696;2023-01-15T12:46:38;9.00;99.90
17174;DHT22;8702;48.130;-1.696;2023-01-15T12:49:18;9.00;99.90
17174;DHT22;8702;48.130;-1.696;2023-01-15T12:51:50;9.00;99.90
17174;DHT22;8702;48.130;-1.696;2023-01-15T12:54:22;9.00;99.90
17174;DHT22;8702;48.130;-1.696;2023-01-15T12:56:56;9.00;99.90
17174;DHT22;8702;48.130;-1.696;2023-01-15T12:59:28;9.00;99.90
17174;DHT22;8702;48.130;-1.696;2023-01-15T13:02:09;9.00;99.90
17174;DHT22;8702;48.130;-1.696;2023-01-15T13:04:43;9.00;99.90
17174;DHT22;8702;48.130;-1.696;2023-01-15T13:07:19;9.10;99.90
17174;DHT22;8702;48.130;-1.696;2023-01-15T13:09:54;9.10;99.90
17174;DHT22;8702;48.130;-1.696;2023-01-15T13:12:21;9.20;99.90
17174;DHT22;8702;48.130;-1.696;2023-01-15T13:14:48;9.20;99.90
17174;DHT22;8702;48.130;-1.696;2023-01-15T13:17:22;9.10;99.90
17174;DHT22;8702;48.130;-1.696;2023-01-15T13:20:07;9.30;99.90
17174;DHT22;8702;48.130;-1.696;2023-01-15T13:22:49;9.30;99.90
17174;DHT22;8702;48.130;-1.696;2023-01-15T13:25:35;9.30;99.90
17174;DHT22;8702;48.130;-1.696;2023-01-15T13:28:21;9.30;99.90
17174;DHT22;8702;48.130;-1.696;2023-01-15T13:30:58;9.30;99.90
17174;DHT22;8702;48.130;-1.696;2023-01-15T13:33:32;9.30;99.90
17174;DHT22;8702;48.130;-1.696;2023-01-15T13:36:07;9.40;99.90
17174;DHT22;8702;48.130;-1.696;2023-01-15T13:38:40;9.40;99.90
17174;DHT22;8702;48.130;-1.696;2023-01-15T13:41:11;9.40;99.90
17174;DHT22;8702;48.130;-1.696;2023-01-15T13:44:02;9.40;99.90
17174;DHT22;8702;48.130;-1.696;2023-01-15T13:46:29;9.40;99.90
17174;DHT22;8702;48.130;-1.696;2023-01-15T13:48:56;9.40;99.90
17174;DHT22;8702;48.130;-1.696;2023-01-15T13:51:27;9.60;99.90
17174;DHT22;8702;48.130;-1.696;2023-01-15T13:53:57;9.60;99.90
17174;DHT22;8702;48.130;-1.696;2023-01-15T13:56:27;9.60;99.90
17174;DHT22;8702;48.130;-1.696;2023-01-15T13:58:55;9.60;99.90
17174;DHT22;8702;48.130;-1.696;2023-01-15T14:01:32;9.60;99.90
17174;DHT22;8702;48.130;-1.696;2023-01-15T14:04:02;9.60;99.90
17174;DHT22;8702;48.130;-1.696;2023-01-15T14:06:38;9.60;99.90
17174;DHT22;8702;48.130;-1.696;2023-01-15T14:09:07;9.60;99.90
17174;DHT22;8702;48.130;-1.696;2023-01-15T14:11:37;9.70;99.90
17174;DHT22;8702;48.130;-1.696;2023-01-15T14:17:39;9.60;99.90
17174;DHT22;8702;48.130;-1.696;2023-01-15T14:23:27;9.80;99.90
17174;DHT22;8702;48.130;-1.696;2023-01-15T14:26:08;9.80;99.90
17174;DHT22;8702;48.130;-1.696;2023-01-15T14:28:50;9.80;99.90
17174;DHT22;8702;48.130;-1.696;2023-01-15T14:31:31;9.70;99.90
17174;DHT22;8702;48.130;-1.696;2023-01-15T14:34:16;9.80;99.90
17174;DHT22;8702;48.130;-1.696;2023-01-15T14:36:51;9.80;99.90
17174;DHT22;8702;48.130;-1.696;2023-01-15T14:39:25;9.80;99.90
17174;DHT22;8702;48.130;-1.696;2023-01-15T14:42:01;9.70;99.90
17174;DHT22;8702;48.130;-1.696;2023-01-15T14:44:55;9.80;99.90
17174;DHT22;8702;48.130;-1.696;2023-01-15T14:47:27;9.80;99.90
17174;DHT22;8702;48.130;-1.696;2023-01-15T14:50:29;9.80;99.90
17174;DHT22;8702;48.130;-1.696;2023-01-15T14:53:28;9.80;99.90
17174;DHT22;8702;48.130;-1.696;2023-01-15T14:56:00;9.70;99.90
17174;DHT22;8702;48.130;-1.696;2023-01-15T14:58:36;9.70;99.90
17174;DHT22;8702;48.130;-1.696;2023-01-15T15:01:16;9.70;99.90
17174;DHT22;8702;48.130;-1.696;2023-01-15T15:03:48;9.70;99.90
17174;DHT22;8702;48.130;-1.696;2023-01-15T15:06:17;9.70;99.90
17174;DHT22;8702;48.130;-1.696;2023-01-15T15:08:44;9.70;99.90
17174;DHT22;8702;48.130;-1.696;2023-01-15T15:11:20;9.70;99.90
17174;DHT22;8702;48.130;-1.696;2023-01-15T15:14:09;9.70;99.90
17174;DHT22;8702;48.130;-1.696;2023-01-15T15:16:42;9.60;99.90
17174;DHT22;8702;48.130;-1.696;2023-01-15T15:19:15;9.30;99.90
17174;DHT22;8702;48.130;-1.696;2023-01-15T15:21:45;9.20;99.90
17174;DHT22;8702;48.130;-1.696;2023-01-15T15:24:17;9.20;99.90
17174;DHT22;8702;48.130;-1.696;2023-01-15T15:26:46;9.20;99.90
17174;DHT22;8702;48.130;-1.696;2023-01-15T15:29:17;9.20;99.90
17174;DHT22;8702;48.130;-1.696;2023-01-15T15:31:46;9.30;99.90
17174;DHT22;8702;48.130;-1.696;2023-01-15T15:34:16;9.30;99.90
17174;DHT22;8702;48.130;-1.696;2023-01-15T15:36:46;9.50;99.90
17174;DHT22;8702;48.130;-1.696;2023-01-15T15:39:19;9.50;99.90
17174;DHT22;8702;48.130;-1.696;2023-01-15T15:41:49;9.60;99.90
17174;DHT22;8702;48.130;-1.696;2023-01-15T15:44:38;9.60;99.90
17174;DHT22;8702;48.130;-1.696;2023-01-15T15:47:25;9.60;99.90
17174;DHT22;8702;48.130;-1.696;2023-01-15T15:50:18;9.60;99.90
17174;DHT22;8702;48.130;-1.696;2023-01-15T15:52:47;9.60;99.90
17174;DHT22;8702;48.130;-1.696;2023-01-15T15:55:16;9.60;99.90
17174;DHT22;8702;48.130;-1.696;2023-01-15T15:57:44;9.60;99.90
17174;DHT22;8702;48.130;-1.696;2023-01-15T16:00:17;9.60;99.90
17174;DHT22;8702;48.130;-1.696;2023-01-15T16:02:45;9.60;99.90
17174;DHT22;8702;48.130;-1.696;2023-01-15T16:05:21;9.60;99.90
17174;DHT22;8702;48.130;-1.696;2023-01-15T16:07:48;9.40;99.90
17174;DHT22;8702;48.130;-1.696;2023-01-15T16:10:17;9.40;99.90
17174;DHT22;8702;48.130;-1.696;2023-01-15T16:12:47;9.40;99.90
17174;DHT22;8702;48.130;-1.696;2023-01-15T16:15:18;9.40;99.90
17174;DHT22;8702;48.130;-1.696;2023-01-15T16:17:46;9.40;99.90
17174;DHT22;8702;48.130;-1.696;2023-01-15T16:20:16;9.40;99.90
17174;DHT22;8702;48.130;-1.696;2023-01-15T16:22:44;9.40;99.90
17174;DHT22;8702;48.130;-1.696;2023-01-15T16:25:21;9.30;99.90
17174;DHT22;8702;48.130;-1.696;2023-01-15T16:27:48;9.30;99.90
17174;DHT22;8702;48.130;-1.696;2023-01-15T16:30:17;9.30;99.90
17174;DHT22;8702;48.130;-1.696;2023-01-15T16:32:44;9.20;99.90
17174;DHT22;8702;48.130;-1.696;2023-01-15T16:35:18;9.30;99.90
17174;DHT22;8702;48.130;-1.696;2023-01-15T16:37:47;9.20;99.90
17174;DHT22;8702;48.130;-1.696;2023-01-15T16:40:25;9.30;99.90
17174;DHT22;8702;48.130;-1.696;2023-01-15T16:43:05;9.10;99.90
17174;DHT22;8702;48.130;-1.696;2023-01-15T16:45:35;9.10;99.90
17174;DHT22;8702;48.130;-1.696;2023-01-15T16:48:13;9.10;99.90
17174;DHT22;8702;48.130;-1.696;2023-01-15T16:50:51;9.00;99.90
17174;DHT22;8702;48.130;-1.696;2023-01-15T16:53:36;9.00;99.90
17174;DHT22;8702;48.130;-1.696;2023-01-15T16:56:04;9.00;99.90
17174;DHT22;8702;48.130;-1.696;2023-01-15T16:58:34;8.90;99.90
17174;DHT22;8702;48.130;-1.696;2023-01-15T17:01:23;8.90;99.90
17174;DHT22;8702;48.130;-1.696;2023-01-15T17:03:51;8.90;99.90
17174;DHT22;8702;48.130;-1.696;2023-01-15T17:06:21;8.90;99.90
17174;DHT22;8702;48.130;-1.696;2023-01-15T17:08:51;8.90;99.90
17174;DHT22;8702;48.130;-1.696;2023-01-15T17:11:20;8.80;99.90
17174;DHT22;8702;48.130;-1.696;2023-01-15T17:13:47;8.80;99.90
17174;DHT22;8702;48.130;-1.696;2023-01-15T17:16:17;8.80;99.90
17174;DHT22;8702;48.130;-1.696;2023-01-15T17:18:45;8.80;99.90
17174;DHT22;8702;48.130;-1.696;2023-01-15T17:21:17;8.90;99.90
17174;DHT22;8702;48.130;-1.696;2023-01-15T17:23:46;8.90;99.90
17174;DHT22;8702;48.130;-1.696;2023-01-15T17:26:16;8.80;99.90
17174;DHT22;8702;48.130;-1.696;2023-01-15T17:28:44;8.70;99.90
17174;DHT22;8702;48.130;-1.696;2023-01-15T17:31:21;8.70;99.90
17174;DHT22;8702;48.130;-1.696;2023-01-15T17:33:49;8.60;99.90
17174;DHT22;8702;48.130;-1.696;2023-01-15T17:36:22;8.60;99.90
17174;DHT22;8702;48.130;-1.696;2023-01-15T17:38:50;8.60;99.90
17174;DHT22;8702;48.130;-1.696;2023-01-15T17:41:19;8.50;99.90
17174;DHT22;8702;48.130;-1.696;2023-01-15T17:43:46;8.50;99.90
17174;DHT22;8702;48.130;-1.696;2023-01-15T17:46:14;8.50;99.90
17174;DHT22;8702;48.130;-1.696;2023-01-15T17:48:42;8.50;99.90
17174;DHT22;8702;48.130;-1.696;2023-01-15T17:51:11;8.40;99.90
17174;DHT22;8702;48.130;-1.696;2023-01-15T17:53:38;8.40;99.90
17174;DHT22;8702;48.130;-1.696;2023-01-15T17:56:06;8.30;99.90
17174;DHT22;8702;48.130;-1.696;2023-01-15T17:58:51;8.30;99.90
17174;DHT22;8702;48.130;-1.696;2023-01-15T18:01:37;8.30;99.90
17174;DHT22;8702;48.130;-1.696;2023-01-15T18:04:27;8.30;99.90
17174;DHT22;8702;48.130;-1.696;2023-01-15T18:07:13;8.30;99.90
17174;DHT22;8702;48.130;-1.696;2023-01-15T18:09:41;8.30;99.90
17174;DHT22;8702;48.130;-1.696;2023-01-15T18:12:09;8.30;99.90
17174;DHT22;8702;48.130;-1.696;2023-01-15T18:14:36;8.30;99.90
17174;DHT22;8702;48.130;-1.696;2023-01-15T18:17:03;8.30;99.90
17174;DHT22;8702;48.130;-1.696;2023-01-15T18:19:31;8.30;99.90
17174;DHT22;8702;48.130;-1.696;2023-01-15T18:21:58;8.30;99.90
17174;DHT22;8702;48.130;-1.696;2023-01-15T18:24:25;8.30;99.90
17174;DHT22;8702;48.130;-1.696;2023-01-15T18:26:52;8.20;99.90
17174;DHT22;8702;48.130;-1.696;2023-01-15T18:29:20;8.20;99.90
17174;DHT22;8702;48.130;-1.696;2023-01-15T18:31:47;8.20;99.90
17174;DHT22;8702;48.130;-1.696;2023-01-15T18:34:14;8.20;99.90
17174;DHT22;8702;48.130;-1.696;2023-01-15T18:36:42;8.10;99.90
17174;DHT22;8702;48.130;-1.696;2023-01-15T18:39:09;8.20;99.90
17174;DHT22;8702;48.130;-1.696;2023-01-15T18:41:38;8.20;99.90
17174;DHT22;8702;48.130;-1.696;2023-01-15T18:44:24;8.20;99.90
17174;DHT22;8702;48.130;-1.696;2023-01-15T18:47:10;8.10;99.90
17174;DHT22;8702;48.130;-1.696;2023-01-15T18:49:38;8.10;99.90
17174;DHT22;8702;48.130;-1.696;2023-01-15T18:52:07;8.10;99.90
17174;DHT22;8702;48.130;-1.696;2023-01-15T18:54:52;8.20;99.90
17174;DHT22;8702;48.130;-1.696;2023-01-15T18:57:19;8.10;99.90
17174;DHT22;8702;48.130;-1.696;2023-01-15T18:59:46;8.10;99.90
17174;DHT22;8702;48.130;-1.696;2023-01-15T19:02:13;8.10;99.90
17174;DHT22;8702;48.130;-1.696;2023-01-15T19:04:40;8.20;99.90
17174;DHT22;8702;48.130;-1.696;2023-01-15T19:07:09;8.20;99.90
17174;DHT22;8702;48.130;-1.696;2023-01-15T19:09:37;8.20;99.90
17174;DHT22;8702;48.130;-1.696;2023-01-15T19:12:05;8.20;99.90
17174;DHT22;8702;48.130;-1.696;2023-01-15T19:14:33;8.20;99.90
17174;DHT22;8702;48.130;-1.696;2023-01-15T19:17:20;8.20;99.90
17174;DHT22;8702;48.130;-1.696;2023-01-15T19:20:08;8.20;99.90
17174;DHT22;8702;48.130;-1.696;2023-01-15T19:22:37;8.20;99.90
17174;DHT22;8702;48.130;-1.696;2023-01-15T19:25:21;8.20;99.90
17174;DHT22;8702;48.130;-1.696;2023-01-15T19:27:50;8.30;99.90
17174;DHT22;8702;48.130;-1.696;2023-01-15T21:16:39;8.70;99.90
17174;DHT22;8702;48.130;-1.696;2023-01-15T21:24:03;8.60;99.90
17174;DHT22;8702;48.130;-1.696;2023-01-15T21:26:30;8.70;99.90
17174;DHT22;8702;48.130;-1.696;2023-01-15T21:28:57;8.70;99.90
17174;DHT22;8702;48.130;-1.696;2023-01-15T22:11:29;8.70;99.90
17174;DHT22;8702;48.130;-1.696;2023-01-15T22:14:09;8.60;99.90
17174;DHT22;8702;48.130;-1.696;2023-01-15T22:16:36;8.60;99.90
17174;DHT22;8702;48.130;-1.696;2023-01-15T22:19:03;8.60;99.90
17174;DHT22;8702;48.130;-1.696;2023-01-15T22:21:30;8.60;99.90
17174;DHT22;8702;48.130;-1.696;2023-01-15T22:23:58;8.60;99.90
17174;DHT22;8702;48.130;-1.696;2023-01-15T22:26:25;8.60;99.90
17174;DHT22;8702;48.130;-1.696;2023-01-15T22:31:26;8.60;99.90
